Goodyear, AZ (85338)

3:26 PM MST on May 28, 2017 (GMT -0700)
Estrella | | Change Station

Elev 994 ft 33.35 °N, 112.43 °W | Updated 42 seconds ago

Clear
Clear
107.4 °F
Feels Like 102 °F
N
4.5
Wind Variable Wind from West
Gusts 6.7 mph

Today
High -- | Low -- °F
--% Chance of Precip.
Yesterday
High -- | Low -- °F
Precip. -- in
Pressure 29.84 in
Visibility 10.0 miles
Clouds Few 15000 ft
Heat Index 102 °F
Dew Point 39 °F
Humidity 10%
Rainfall 0.00 in
Snow Depth Not available.
5:22 AM 7:32 PM
Waxing Crescent, 14% visible
METAR KGYR 282147Z 22009G14KT 10SM FEW150 37/M02 A2984
Pressure 29.84 in
Visibility 10.0 miles
Clouds Few 15000 ft
Heat Index 102 °F
Dew Point 39 °F
Humidity 10%
Rainfall 0.00 in
Snow Depth Not available.
5:22 AM 7:32 PM
Waxing Crescent, 14% visible
METAR KGYR 282147Z 22009G14KT 10SM FEW150 37/M02 A2984

Get Severe Weather Alerts

Thanks for signing up!

Be on the lookout for a verification email in your inbox.

You'll start receiving the daily forecast at 6 AM.

×

10-Day Weather Forecast

Almanac

Astronomy

May. 28, 2017 Rise Set
Actual Time
Civil Twilight
Nautical Twilight
Astronomical Twilight
Moon
Length of Visible Light
Length of Day
Tomorrow will be .
, % of the Moon is Illuminated

Today's Extremes

State Highs State Lows

Community

WunderPhotos

Category 6

Welcome to Category 6. This is the collective home for Weather Underground's featured writeups by Dr. Jeff Masters (right), Bob Henson (left), Chris Burt, and other regular contributors.

Nearby

Air Quality

  Air Quality AQ Index Pollutant
Not available.

Snow Depth

Station Depth Elevation

Earthquake Activity

City Distance Mag. Time & Date
Minimum magnitude displayed is 2.5.

Coastal Water Temperatures

Place Temperature

Stations

Nearby Weather Stations

Station Location Temp. Windchill Dew Point Humidity Wind Precip. Elev Updated Type
                   

Watches & Warnings

There are currently no watches in effect.